sensor_id;sensor_type;location;lat;lon;timestamp;temperature;humidity
14378;DHT22;7272;53.668;9.578;2023-02-03T00:01:52;8.00;99.90
14378;DHT22;7272;53.668;9.578;2023-02-03T00:04:54;8.10;99.90
14378;DHT22;7272;53.668;9.578;2023-02-03T00:07:56;8.10;99.90
14378;DHT22;7272;53.668;9.578;2023-02-03T00:10:59;8.20;99.90
14378;DHT22;7272;53.668;9.578;2023-02-03T00:14:01;8.20;99.90
14378;DHT22;7272;53.668;9.578;2023-02-03T00:17:06;8.30;99.90
14378;DHT22;7272;53.668;9.578;2023-02-03T00:20:09;8.40;99.90
14378;DHT22;7272;53.668;9.578;2023-02-03T00:23:11;8.40;99.90
14378;DHT22;7272;53.668;9.578;2023-02-03T00:26:15;8.40;99.90
14378;DHT22;7272;53.668;9.578;2023-02-03T00:29:18;8.50;99.90
14378;DHT22;7272;53.668;9.578;2023-02-03T00:32:25;8.50;99.90
14378;DHT22;7272;53.668;9.578;2023-02-03T00:35:27;8.60;99.90
14378;DHT22;7272;53.668;9.578;2023-02-03T00:38:29;8.60;99.90
14378;DHT22;7272;53.668;9.578;2023-02-03T00:41:31;8.60;99.90
14378;DHT22;7272;53.668;9.578;2023-02-03T00:44:33;8.60;99.90
14378;DHT22;7272;53.668;9.578;2023-02-03T00:47:36;8.60;99.90
14378;DHT22;7272;53.668;9.578;2023-02-03T00:50:38;8.70;99.90
14378;DHT22;7272;53.668;9.578;2023-02-03T00:53:40;8.70;99.90
14378;DHT22;7272;53.668;9.578;2023-02-03T00:56:42;8.70;99.90
14378;DHT22;7272;53.668;9.578;2023-02-03T00:59:46;8.70;99.90
14378;DHT22;7272;53.668;9.578;2023-02-03T01:02:49;8.70;99.90
14378;DHT22;7272;53.668;9.578;2023-02-03T01:05:51;8.80;99.90
14378;DHT22;7272;53.668;9.578;2023-02-03T01:08:53;8.80;99.90
14378;DHT22;7272;53.668;9.578;2023-02-03T01:11:55;8.80;99.90
14378;DHT22;7272;53.668;9.578;2023-02-03T01:14:58;8.80;99.90
14378;DHT22;7272;53.668;9.578;2023-02-03T01:18:01;8.80;99.90
14378;DHT22;7272;53.668;9.578;2023-02-03T01:21:07;8.80;99.90
14378;DHT22;7272;53.668;9.578;2023-02-03T01:24:09;8.80;99.90
14378;DHT22;7272;53.668;9.578;2023-02-03T01:27:12;8.90;99.90
14378;DHT22;7272;53.668;9.578;2023-02-03T01:30:15;8.80;99.90
14378;DHT22;7272;53.668;9.578;2023-02-03T01:33:18;8.80;99.90
14378;DHT22;7272;53.668;9.578;2023-02-03T01:36:22;8.80;99.90
14378;DHT22;7272;53.668;9.578;2023-02-03T01:39:24;8.80;99.90
14378;DHT22;7272;53.668;9.578;2023-02-03T01:42:29;8.80;99.90
14378;DHT22;7272;53.668;9.578;2023-02-03T01:45:33;8.90;99.90
14378;DHT22;7272;53.668;9.578;2023-02-03T01:48:36;8.90;99.90
14378;DHT22;7272;53.668;9.578;2023-02-03T01:51:41;8.80;99.90
14378;DHT22;7272;53.668;9.578;2023-02-03T01:54:45;8.90;99.90
14378;DHT22;7272;53.668;9.578;2023-02-03T01:57:51;8.80;99.90
14378;DHT22;7272;53.668;9.578;2023-02-03T02:00:55;8.90;99.90
14378;DHT22;7272;53.668;9.578;2023-02-03T02:04:00;8.90;99.90
14378;DHT22;7272;53.668;9.578;2023-02-03T02:07:04;8.90;99.90
14378;DHT22;7272;53.668;9.578;2023-02-03T02:10:07;8.90;99.90
14378;DHT22;7272;53.668;9.578;2023-02-03T02:13:11;8.90;99.90
14378;DHT22;7272;53.668;9.578;2023-02-03T02:16:17;8.90;99.90
14378;DHT22;7272;53.668;9.578;2023-02-03T02:19:45;8.90;99.90
14378;DHT22;7272;53.668;9.578;2023-02-03T02:23:09;9.00;99.90
14378;DHT22;7272;53.668;9.578;2023-02-03T02:26:36;8.90;99.90
14378;DHT22;7272;53.668;9.578;2023-02-03T02:33:21;9.00;99.90
14378;DHT22;7272;53.668;9.578;2023-02-03T02:36:30;9.00;99.90
14378;DHT22;7272;53.668;9.578;2023-02-03T02:39:39;9.00;99.90
14378;DHT22;7272;53.668;9.578;2023-02-03T02:42:52;9.00;99.90
14378;DHT22;7272;53.668;9.578;2023-02-03T02:46:04;9.00;99.90
14378;DHT22;7272;53.668;9.578;2023-02-03T02:49:13;9.00;99.90
14378;DHT22;7272;53.668;9.578;2023-02-03T02:52:18;9.00;99.90
14378;DHT22;7272;53.668;9.578;2023-02-03T02:55:23;9.00;99.90
14378;DHT22;7272;53.668;9.578;2023-02-03T02:58:31;9.00;99.90
14378;DHT22;7272;53.668;9.578;2023-02-03T03:01:34;9.00;99.90
14378;DHT22;7272;53.668;9.578;2023-02-03T03:04:38;9.00;99.90
14378;DHT22;7272;53.668;9.578;2023-02-03T03:07:44;9.00;99.90
14378;DHT22;7272;53.668;9.578;2023-02-03T03:10:49;9.00;99.90
14378;DHT22;7272;53.668;9.578;2023-02-03T03:13:53;9.00;99.90
14378;DHT22;7272;53.668;9.578;2023-02-03T03:16:59;9.00;99.90
14378;DHT22;7272;53.668;9.578;2023-02-03T03:20:07;9.00;99.90
14378;DHT22;7272;53.668;9.578;2023-02-03T03:23:17;9.00;99.90
14378;DHT22;7272;53.668;9.578;2023-02-03T03:26:25;9.10;99.90
14378;DHT22;7272;53.668;9.578;2023-02-03T03:29:31;9.10;99.90
14378;DHT22;7272;53.668;9.578;2023-02-03T03:32:35;9.10;99.90
14378;DHT22;7272;53.668;9.578;2023-02-03T03:35:43;9.00;99.90
14378;DHT22;7272;53.668;9.578;2023-02-03T03:38:52;9.10;99.90
14378;DHT22;7272;53.668;9.578;2023-02-03T03:41:59;9.10;99.90
14378;DHT22;7272;53.668;9.578;2023-02-03T03:45:05;9.00;99.90
14378;DHT22;7272;53.668;9.578;2023-02-03T03:48:12;9.00;99.90
14378;DHT22;7272;53.668;9.578;2023-02-03T03:51:19;9.10;99.90
14378;DHT22;7272;53.668;9.578;2023-02-03T03:54:23;9.10;99.90
14378;DHT22;7272;53.668;9.578;2023-02-03T03:57:29;9.00;99.90
14378;DHT22;7272;53.668;9.578;2023-02-03T04:00:35;9.00;99.90
14378;DHT22;7272;53.668;9.578;2023-02-03T04:03:42;9.00;99.90
14378;DHT22;7272;53.668;9.578;2023-02-03T04:06:46;9.00;99.90
14378;DHT22;7272;53.668;9.578;2023-02-03T04:09:48;9.00;99.90
14378;DHT22;7272;53.668;9.578;2023-02-03T04:12:50;8.90;99.90
14378;DHT22;7272;53.668;9.578;2023-02-03T04:15:52;8.90;99.90
14378;DHT22;7272;53.668;9.578;2023-02-03T04:18:54;8.90;99.90
14378;DHT22;7272;53.668;9.578;2023-02-03T04:21:57;8.90;99.90
14378;DHT22;7272;53.668;9.578;2023-02-03T04:24:59;8.90;99.90
14378;DHT22;7272;53.668;9.578;2023-02-03T04:28:01;8.90;99.90
14378;DHT22;7272;53.668;9.578;2023-02-03T04:31:03;8.80;99.90
14378;DHT22;7272;53.668;9.578;2023-02-03T04:34:05;8.90;99.90
14378;DHT22;7272;53.668;9.578;2023-02-03T04:37:08;8.90;99.90
14378;DHT22;7272;53.668;9.578;2023-02-03T04:40:11;8.90;99.90
14378;DHT22;7272;53.668;9.578;2023-02-03T04:43:13;8.90;99.90
14378;DHT22;7272;53.668;9.578;2023-02-03T04:46:16;8.80;99.90
14378;DHT22;7272;53.668;9.578;2023-02-03T04:49:19;8.90;99.90
14378;DHT22;7272;53.668;9.578;2023-02-03T04:52:22;8.80;99.90
14378;DHT22;7272;53.668;9.578;2023-02-03T04:55:24;8.80;99.90
14378;DHT22;7272;53.668;9.578;2023-02-03T04:58:26;8.80;99.90
14378;DHT22;7272;53.668;9.578;2023-02-03T05:01:29;8.90;99.90
14378;DHT22;7272;53.668;9.578;2023-02-03T05:04:31;8.90;99.90
14378;DHT22;7272;53.668;9.578;2023-02-03T05:07:35;8.90;99.90
14378;DHT22;7272;53.668;9.578;2023-02-03T05:10:37;8.80;99.90
14378;DHT22;7272;53.668;9.578;2023-02-03T05:13:39;8.80;99.90
14378;DHT22;7272;53.668;9.578;2023-02-03T05:16:41;8.80;99.90
14378;DHT22;7272;53.668;9.578;2023-02-03T05:19:44;8.80;99.90
14378;DHT22;7272;53.668;9.578;2023-02-03T05:22:48;8.80;99.90
14378;DHT22;7272;53.668;9.578;2023-02-03T05:25:50;8.80;99.90
14378;DHT22;7272;53.668;9.578;2023-02-03T05:28:52;8.80;99.90
14378;DHT22;7272;53.668;9.578;2023-02-03T05:31:54;8.80;99.90
14378;DHT22;7272;53.668;9.578;2023-02-03T05:34:55;8.80;99.90
14378;DHT22;7272;53.668;9.578;2023-02-03T05:37:59;8.80;99.90
14378;DHT22;7272;53.668;9.578;2023-02-03T05:41:01;8.80;99.90
14378;DHT22;7272;53.668;9.578;2023-02-03T05:44:21;8.80;99.90
14378;DHT22;7272;53.668;9.578;2023-02-03T05:47:23;8.80;99.90
14378;DHT22;7272;53.668;9.578;2023-02-03T05:50:25;8.80;99.90
14378;DHT22;7272;53.668;9.578;2023-02-03T05:53:42;8.90;99.90
14378;DHT22;7272;53.668;9.578;2023-02-03T05:56:44;8.90;99.90
14378;DHT22;7272;53.668;9.578;2023-02-03T05:59:46;8.90;99.90
14378;DHT22;7272;53.668;9.578;2023-02-03T06:02:52;8.90;99.90
14378;DHT22;7272;53.668;9.578;2023-02-03T06:05:54;8.90;99.90
14378;DHT22;7272;53.668;9.578;2023-02-03T06:08:58;8.90;99.90
14378;DHT22;7272;53.668;9.578;2023-02-03T06:12:00;8.90;99.90
14378;DHT22;7272;53.668;9.578;2023-02-03T06:15:02;8.90;99.90
14378;DHT22;7272;53.668;9.578;2023-02-03T06:18:04;8.90;99.90
14378;DHT22;7272;53.668;9.578;2023-02-03T06:21:06;9.00;99.90
14378;DHT22;7272;53.668;9.578;2023-02-03T06:24:10;8.90;99.90
14378;DHT22;7272;53.668;9.578;2023-02-03T06:27:12;9.00;99.90
14378;DHT22;7272;53.668;9.578;2023-02-03T06:30:14;9.00;99.90
14378;DHT22;7272;53.668;9.578;2023-02-03T06:33:17;9.00;99.90
14378;DHT22;7272;53.668;9.578;2023-02-03T06:36:19;9.00;99.90
14378;DHT22;7272;53.668;9.578;2023-02-03T06:39:23;9.10;99.90
14378;DHT22;7272;53.668;9.578;2023-02-03T06:42:25;9.30;99.90
14378;DHT22;7272;53.668;9.578;2023-02-03T06:45:27;9.30;99.90
14378;DHT22;7272;53.668;9.578;2023-02-03T06:48:29;9.40;99.90
14378;DHT22;7272;53.668;9.578;2023-02-03T06:51:31;9.40;99.90
14378;DHT22;7272;53.668;9.578;2023-02-03T06:54:34;9.40;99.90
14378;DHT22;7272;53.668;9.578;2023-02-03T06:57:42;9.40;99.90
14378;DHT22;7272;53.668;9.578;2023-02-03T07:00:44;9.40;99.90
14378;DHT22;7272;53.668;9.578;2023-02-03T07:03:46;9.40;99.90
14378;DHT22;7272;53.668;9.578;2023-02-03T07:06:48;9.40;99.90
14378;DHT22;7272;53.668;9.578;2023-02-03T07:09:51;9.40;99.90
14378;DHT22;7272;53.668;9.578;2023-02-03T07:12:53;9.40;99.90
14378;DHT22;7272;53.668;9.578;2023-02-03T07:15:55;9.40;99.90
14378;DHT22;7272;53.668;9.578;2023-02-03T07:18:57;9.40;99.90
14378;DHT22;7272;53.668;9.578;2023-02-03T07:21:59;9.40;99.90
14378;DHT22;7272;53.668;9.578;2023-02-03T07:25:03;9.40;99.90
14378;DHT22;7272;53.668;9.578;2023-02-03T07:28:05;9.40;99.90
14378;DHT22;7272;53.668;9.578;2023-02-03T07:31:07;9.40;99.90
14378;DHT22;7272;53.668;9.578;2023-02-03T07:34:09;9.40;99.90
14378;DHT22;7272;53.668;9.578;2023-02-03T07:37:11;9.40;99.90
14378;DHT22;7272;53.668;9.578;2023-02-03T07:40:15;9.40;99.90
14378;DHT22;7272;53.668;9.578;2023-02-03T07:43:17;9.40;99.90
14378;DHT22;7272;53.668;9.578;2023-02-03T07:46:19;9.40;99.90
14378;DHT22;7272;53.668;9.578;2023-02-03T07:49:21;9.40;99.90
14378;DHT22;7272;53.668;9.578;2023-02-03T07:52:23;9.40;99.90
14378;DHT22;7272;53.668;9.578;2023-02-03T07:55:27;9.40;99.90
14378;DHT22;7272;53.668;9.578;2023-02-03T07:58:29;9.40;99.90
14378;DHT22;7272;53.668;9.578;2023-02-03T08:01:31;9.40;99.90
14378;DHT22;7272;53.668;9.578;2023-02-03T08:04:33;9.40;99.90
14378;DHT22;7272;53.668;9.578;2023-02-03T08:07:35;9.30;99.90
14378;DHT22;7272;53.668;9.578;2023-02-03T08:10:39;9.30;99.90
14378;DHT22;7272;53.668;9.578;2023-02-03T08:13:41;9.10;99.90
14378;DHT22;7272;53.668;9.578;2023-02-03T08:16:42;9.00;99.90
14378;DHT22;7272;53.668;9.578;2023-02-03T08:19:45;9.00;99.90
14378;DHT22;7272;53.668;9.578;2023-02-03T08:22:47;9.00;99.90
14378;DHT22;7272;53.668;9.578;2023-02-03T08:25:51;9.00;99.90
14378;DHT22;7272;53.668;9.578;2023-02-03T08:28:53;8.90;99.90
14378;DHT22;7272;53.668;9.578;2023-02-03T08:31:56;8.90;99.90
14378;DHT22;7272;53.668;9.578;2023-02-03T08:34:58;8.80;99.90
14378;DHT22;7272;53.668;9.578;2023-02-03T08:38:00;8.90;99.90
14378;DHT22;7272;53.668;9.578;2023-02-03T08:41:07;8.90;99.90
14378;DHT22;7272;53.668;9.578;2023-02-03T08:44:09;8.90;99.90
14378;DHT22;7272;53.668;9.578;2023-02-03T08:47:11;8.90;99.90
14378;DHT22;7272;53.668;9.578;2023-02-03T08:50:13;9.00;99.90
14378;DHT22;7272;53.668;9.578;2023-02-03T08:53:16;9.00;99.90
14378;DHT22;7272;53.668;9.578;2023-02-03T08:56:19;9.00;99.90
14378;DHT22;7272;53.668;9.578;2023-02-03T08:59:21;9.00;99.90
14378;DHT22;7272;53.668;9.578;2023-02-03T09:02:23;9.00;99.90
14378;DHT22;7272;53.668;9.578;2023-02-03T09:05:25;9.00;99.90
14378;DHT22;7272;53.668;9.578;2023-02-03T09:08:28;9.00;99.90
14378;DHT22;7272;53.668;9.578;2023-02-03T09:11:31;9.00;99.90
14378;DHT22;7272;53.668;9.578;2023-02-03T09:14:33;9.00;99.90
14378;DHT22;7272;53.668;9.578;2023-02-03T09:17:36;9.00;99.90
14378;DHT22;7272;53.668;9.578;2023-02-03T09:20:38;9.00;99.90
14378;DHT22;7272;53.668;9.578;2023-02-03T09:23:40;9.10;99.90
14378;DHT22;7272;53.668;9.578;2023-02-03T09:26:43;9.00;99.90
14378;DHT22;7272;53.668;9.578;2023-02-03T09:29:45;9.00;99.90
14378;DHT22;7272;53.668;9.578;2023-02-03T09:32:47;9.00;99.90
14378;DHT22;7272;53.668;9.578;2023-02-03T09:35:53;9.00;99.90
14378;DHT22;7272;53.668;9.578;2023-02-03T09:38:56;9.00;99.90
14378;DHT22;7272;53.668;9.578;2023-02-03T09:45:29;8.90;99.90
14378;DHT22;7272;53.668;9.578;2023-02-03T09:48:35;9.00;99.90
14378;DHT22;7272;53.668;9.578;2023-02-03T09:51:43;9.00;99.90
14378;DHT22;7272;53.668;9.578;2023-02-03T09:54:51;9.00;99.90
14378;DHT22;7272;53.668;9.578;2023-02-03T09:58:00;9.10;99.90
14378;DHT22;7272;53.668;9.578;2023-02-03T10:01:07;9.10;99.90
14378;DHT22;7272;53.668;9.578;2023-02-03T10:04:22;9.10;99.90
14378;DHT22;7272;53.668;9.578;2023-02-03T10:07:33;9.10;99.90
14378;DHT22;7272;53.668;9.578;2023-02-03T10:10:44;9.00;99.90
14378;DHT22;7272;53.668;9.578;2023-02-03T10:13:56;9.00;99.90
14378;DHT22;7272;53.668;9.578;2023-02-03T10:17:15;9.10;99.90
14378;DHT22;7272;53.668;9.578;2023-02-03T10:20:24;9.10;99.90
14378;DHT22;7272;53.668;9.578;2023-02-03T10:23:35;9.00;99.90
14378;DHT22;7272;53.668;9.578;2023-02-03T10:26:38;9.00;99.90
14378;DHT22;7272;53.668;9.578;2023-02-03T10:29:42;9.00;99.90
14378;DHT22;7272;53.668;9.578;2023-02-03T10:32:44;9.00;99.90
14378;DHT22;7272;53.668;9.578;2023-02-03T10:35:50;9.00;99.90
14378;DHT22;7272;53.668;9.578;2023-02-03T10:38:57;9.00;99.90
14378;DHT22;7272;53.668;9.578;2023-02-03T10:42:00;9.10;99.90
14378;DHT22;7272;53.668;9.578;2023-02-03T10:45:05;9.20;99.90
14378;DHT22;7272;53.668;9.578;2023-02-03T10:48:14;9.20;99.90
14378;DHT22;7272;53.668;9.578;2023-02-03T10:51:20;9.20;99.90
14378;DHT22;7272;53.668;9.578;2023-02-03T10:54:28;9.30;99.90
14378;DHT22;7272;53.668;9.578;2023-02-03T10:57:34;9.20;99.90
14378;DHT22;7272;53.668;9.578;2023-02-03T11:00:38;9.20;99.90
14378;DHT22;7272;53.668;9.578;2023-02-03T11:03:42;9.20;99.90
14378;DHT22;7272;53.668;9.578;2023-02-03T11:06:53;9.20;99.90
14378;DHT22;7272;53.668;9.578;2023-02-03T11:09:56;9.30;99.90
14378;DHT22;7272;53.668;9.578;2023-02-03T11:13:15;9.30;99.90
14378;DHT22;7272;53.668;9.578;2023-02-03T11:16:19;9.30;99.90
14378;DHT22;7272;53.668;9.578;2023-02-03T11:19:21;9.30;99.90
14378;DHT22;7272;53.668;9.578;2023-02-03T11:22:27;9.30;99.90
14378;DHT22;7272;53.668;9.578;2023-02-03T11:25:32;9.40;99.90
14378;DHT22;7272;53.668;9.578;2023-02-03T11:28:35;9.50;99.90
14378;DHT22;7272;53.668;9.578;2023-02-03T11:31:38;9.50;99.90
14378;DHT22;7272;53.668;9.578;2023-02-03T11:34:45;9.50;99.90
14378;DHT22;7272;53.668;9.578;2023-02-03T11:37:49;9.60;99.90
14378;DHT22;7272;53.668;9.578;2023-02-03T11:40:57;9.60;99.90
14378;DHT22;7272;53.668;9.578;2023-02-03T11:44:10;9.70;99.90
14378;DHT22;7272;53.668;9.578;2023-02-03T11:47:14;9.70;99.90
14378;DHT22;7272;53.668;9.578;2023-02-03T11:50:26;9.60;99.90
14378;DHT22;7272;53.668;9.578;2023-02-03T11:53:37;9.70;99.90
14378;DHT22;7272;53.668;9.578;2023-02-03T11:57:04;9.70;99.90
14378;DHT22;7272;53.668;9.578;2023-02-03T12:00:15;9.70;99.90
14378;DHT22;7272;53.668;9.578;2023-02-03T12:03:49;9.70;99.90
14378;DHT22;7272;53.668;9.578;2023-02-03T12:07:05;9.80;99.90
14378;DHT22;7272;53.668;9.578;2023-02-03T12:10:20;9.90;99.90
14378;DHT22;7272;53.668;9.578;2023-02-03T12:13:44;9.80;99.90
14378;DHT22;7272;53.668;9.578;2023-02-03T12:17:10;9.60;99.90
14378;DHT22;7272;53.668;9.578;2023-02-03T12:20:33;9.50;99.90
14378;DHT22;7272;53.668;9.578;2023-02-03T12:23:47;9.40;99.90
14378;DHT22;7272;53.668;9.578;2023-02-03T12:26:56;9.40;99.90
14378;DHT22;7272;53.668;9.578;2023-02-03T12:30:08;9.30;99.90
14378;DHT22;7272;53.668;9.578;2023-02-03T12:33:16;9.20;99.90
14378;DHT22;7272;53.668;9.578;2023-02-03T12:36:23;9.10;99.90
14378;DHT22;7272;53.668;9.578;2023-02-03T12:39:29;9.20;99.90
14378;DHT22;7272;53.668;9.578;2023-02-03T12:42:38;9.10;99.90
14378;DHT22;7272;53.668;9.578;2023-02-03T12:45:47;9.10;99.90
14378;DHT22;7272;53.668;9.578;2023-02-03T12:48:56;9.00;99.90
14378;DHT22;7272;53.668;9.578;2023-02-03T12:52:04;9.00;99.90
14378;DHT22;7272;53.668;9.578;2023-02-03T12:55:19;9.00;99.90
14378;DHT22;7272;53.668;9.578;2023-02-03T12:58:24;9.00;99.90
14378;DHT22;7272;53.668;9.578;2023-02-03T13:01:33;9.00;99.90
14378;DHT22;7272;53.668;9.578;2023-02-03T13:04:42;9.10;99.90
14378;DHT22;7272;53.668;9.578;2023-02-03T13:07:50;9.10;99.90
14378;DHT22;7272;53.668;9.578;2023-02-03T13:10:56;9.00;99.90
14378;DHT22;7272;53.668;9.578;2023-02-03T13:14:04;9.00;99.90
14378;DHT22;7272;53.668;9.578;2023-02-03T13:17:15;8.90;99.90
14378;DHT22;7272;53.668;9.578;2023-02-03T13:20:21;8.90;99.90
14378;DHT22;7272;53.668;9.578;2023-02-03T13:23:25;8.90;99.90
14378;DHT22;7272;53.668;9.578;2023-02-03T13:26:40;8.90;99.90
14378;DHT22;7272;53.668;9.578;2023-02-03T13:29:56;8.90;99.90
14378;DHT22;7272;53.668;9.578;2023-02-03T13:37:03;8.90;99.90
14378;DHT22;7272;53.668;9.578;2023-02-03T13:40:24;9.00;99.90
14378;DHT22;7272;53.668;9.578;2023-02-03T13:43:33;8.90;99.90
14378;DHT22;7272;53.668;9.578;2023-02-03T13:46:35;8.80;99.90
14378;DHT22;7272;53.668;9.578;2023-02-03T13:49:47;8.80;99.90
14378;DHT22;7272;53.668;9.578;2023-02-03T13:52:57;8.70;99.90
14378;DHT22;7272;53.668;9.578;2023-02-03T13:56:03;8.70;99.90
14378;DHT22;7272;53.668;9.578;2023-02-03T13:59:26;8.70;99.90
14378;DHT22;7272;53.668;9.578;2023-02-03T14:02:52;8.70;99.90
14378;DHT22;7272;53.668;9.578;2023-02-03T14:05:56;8.60;99.90
14378;DHT22;7272;53.668;9.578;2023-02-03T14:08:59;8.60;99.90
14378;DHT22;7272;53.668;9.578;2023-02-03T14:15:42;8.60;99.90
14378;DHT22;7272;53.668;9.578;2023-02-03T14:18:46;8.60;99.90
14378;DHT22;7272;53.668;9.578;2023-02-03T14:21:51;8.60;99.90
14378;DHT22;7272;53.668;9.578;2023-02-03T14:24:56;8.50;99.90
14378;DHT22;7272;53.668;9.578;2023-02-03T14:28:09;8.50;99.90
14378;DHT22;7272;53.668;9.578;2023-02-03T14:31:13;8.50;99.90
14378;DHT22;7272;53.668;9.578;2023-02-03T14:34:17;8.50;99.90
14378;DHT22;7272;53.668;9.578;2023-02-03T14:37:21;8.50;99.90
14378;DHT22;7272;53.668;9.578;2023-02-03T14:40:32;8.50;99.90
14378;DHT22;7272;53.668;9.578;2023-02-03T14:43:40;8.60;99.90
14378;DHT22;7272;53.668;9.578;2023-02-03T14:47:02;8.60;99.90
14378;DHT22;7272;53.668;9.578;2023-02-03T14:50:25;8.60;99.90
14378;DHT22;7272;53.668;9.578;2023-02-03T14:57:13;8.50;99.90
14378;DHT22;7272;53.668;9.578;2023-02-03T15:00:29;8.60;99.90
14378;DHT22;7272;53.668;9.578;2023-02-03T15:03:31;8.60;99.90
14378;DHT22;7272;53.668;9.578;2023-02-03T15:06:40;8.50;99.90
14378;DHT22;7272;53.668;9.578;2023-02-03T15:09:44;8.50;99.90
14378;DHT22;7272;53.668;9.578;2023-02-03T15:12:49;8.50;99.90
14378;DHT22;7272;53.668;9.578;2023-02-03T15:15:54;8.50;99.90
14378;DHT22;7272;53.668;9.578;2023-02-03T15:18:58;8.50;99.90
14378;DHT22;7272;53.668;9.578;2023-02-03T15:22:18;8.50;99.90
14378;DHT22;7272;53.668;9.578;2023-02-03T15:25:22;8.50;99.90
14378;DHT22;7272;53.668;9.578;2023-02-03T15:28:31;8.50;99.90
14378;DHT22;7272;53.668;9.578;2023-02-03T15:31:37;8.40;99.90
14378;DHT22;7272;53.668;9.578;2023-02-03T15:34:42;8.40;99.90
14378;DHT22;7272;53.668;9.578;2023-02-03T15:37:48;8.40;99.90
14378;DHT22;7272;53.668;9.578;2023-02-03T15:40:53;8.50;99.90
14378;DHT22;7272;53.668;9.578;2023-02-03T15:44:01;8.40;99.90
14378;DHT22;7272;53.668;9.578;2023-02-03T15:47:14;8.40;99.90
14378;DHT22;7272;53.668;9.578;2023-02-03T15:50:26;8.40;99.90
14378;DHT22;7272;53.668;9.578;2023-02-03T15:53:32;8.40;99.90
14378;DHT22;7272;53.668;9.578;2023-02-03T15:56:38;8.40;99.90
14378;DHT22;7272;53.668;9.578;2023-02-03T15:59:44;8.40;99.90
14378;DHT22;7272;53.668;9.578;2023-02-03T16:02:49;8.40;99.90
14378;DHT22;7272;53.668;9.578;2023-02-03T16:05:52;8.40;99.90
14378;DHT22;7272;53.668;9.578;2023-02-03T16:08:55;8.40;99.90
14378;DHT22;7272;53.668;9.578;2023-02-03T16:15:22;8.40;99.90
14378;DHT22;7272;53.668;9.578;2023-02-03T16:18:26;8.40;99.90
14378;DHT22;7272;53.668;9.578;2023-02-03T16:21:31;8.40;99.90
14378;DHT22;7272;53.668;9.578;2023-02-03T16:24:36;8.50;99.90
14378;DHT22;7272;53.668;9.578;2023-02-03T16:27:41;8.50;99.90
14378;DHT22;7272;53.668;9.578;2023-02-03T16:30:57;8.50;99.90
14378;DHT22;7272;53.668;9.578;2023-02-03T16:34:18;8.40;99.90
14378;DHT22;7272;53.668;9.578;2023-02-03T16:37:43;8.30;99.90
14378;DHT22;7272;53.668;9.578;2023-02-03T16:41:03;8.30;99.90
14378;DHT22;7272;53.668;9.578;2023-02-03T16:44:32;8.30;99.90
14378;DHT22;7272;53.668;9.578;2023-02-03T16:47:51;8.30;99.90
14378;DHT22;7272;53.668;9.578;2023-02-03T16:51:13;8.30;99.90
14378;DHT22;7272;53.668;9.578;2023-02-03T16:54:16;8.30;99.90
14378;DHT22;7272;53.668;9.578;2023-02-03T16:57:19;8.30;99.90
14378;DHT22;7272;53.668;9.578;2023-02-03T17:00:22;8.30;99.90
14378;DHT22;7272;53.668;9.578;2023-02-03T17:03:26;8.30;99.90
14378;DHT22;7272;53.668;9.578;2023-02-03T17:06:30;8.30;99.90
14378;DHT22;7272;53.668;9.578;2023-02-03T17:09:34;8.30;99.90
14378;DHT22;7272;53.668;9.578;2023-02-03T17:12:36;8.20;99.90
14378;DHT22;7272;53.668;9.578;2023-02-03T17:15:40;8.20;99.90
14378;DHT22;7272;53.668;9.578;2023-02-03T17:18:42;8.20;99.90
14378;DHT22;7272;53.668;9.578;2023-02-03T17:21:48;8.20;99.90
14378;DHT22;7272;53.668;9.578;2023-02-03T17:24:53;8.20;99.90
14378;DHT22;7272;53.668;9.578;2023-02-03T17:27:56;8.20;99.90
14378;DHT22;7272;53.668;9.578;2023-02-03T17:30:59;8.20;99.90
14378;DHT22;7272;53.668;9.578;2023-02-03T17:34:02;8.20;99.90
14378;DHT22;7272;53.668;9.578;2023-02-03T17:37:06;8.20;99.90
14378;DHT22;7272;53.668;9.578;2023-02-03T17:40:08;8.10;99.90
14378;DHT22;7272;53.668;9.578;2023-02-03T17:43:11;8.10;99.90
14378;DHT22;7272;53.668;9.578;2023-02-03T17:46:15;8.00;99.90
14378;DHT22;7272;53.668;9.578;2023-02-03T17:49:18;7.90;99.90
14378;DHT22;7272;53.668;9.578;2023-02-03T17:52:21;7.80;99.90
14378;DHT22;7272;53.668;9.578;2023-02-03T17:55:24;7.70;99.90
14378;DHT22;7272;53.668;9.578;2023-02-03T17:58:26;7.70;99.90
14378;DHT22;7272;53.668;9.578;2023-02-03T18:01:28;7.70;99.90
14378;DHT22;7272;53.668;9.578;2023-02-03T18:04:31;7.60;99.90
14378;DHT22;7272;53.668;9.578;2023-02-03T18:07:34;7.60;99.90
14378;DHT22;7272;53.668;9.578;2023-02-03T18:10:42;7.50;99.90
14378;DHT22;7272;53.668;9.578;2023-02-03T18:13:46;7.40;99.90
14378;DHT22;7272;53.668;9.578;2023-02-03T18:16:49;7.40;99.90
14378;DHT22;7272;53.668;9.578;2023-02-03T18:19:51;7.30;99.90
14378;DHT22;7272;53.668;9.578;2023-02-03T18:22:54;7.30;99.90
14378;DHT22;7272;53.668;9.578;2023-02-03T18:25:56;7.30;99.90
14378;DHT22;7272;53.668;9.578;2023-02-03T18:28:58;7.30;99.90
14378;DHT22;7272;53.668;9.578;2023-02-03T18:32:01;7.30;99.90
14378;DHT22;7272;53.668;9.578;2023-02-03T18:35:03;7.40;99.90
14378;DHT22;7272;53.668;9.578;2023-02-03T18:38:12;7.40;99.90
14378;DHT22;7272;53.668;9.578;2023-02-03T18:41:16;7.50;99.90
14378;DHT22;7272;53.668;9.578;2023-02-03T18:44:18;7.50;99.90
14378;DHT22;7272;53.668;9.578;2023-02-03T18:47:20;7.50;99.90
14378;DHT22;7272;53.668;9.578;2023-02-03T18:50:22;7.50;99.90
14378;DHT22;7272;53.668;9.578;2023-02-03T18:53:26;7.60;99.90
14378;DHT22;7272;53.668;9.578;2023-02-03T18:56:29;7.60;99.90
14378;DHT22;7272;53.668;9.578;2023-02-03T18:59:35;7.50;99.90
14378;DHT22;7272;53.668;9.578;2023-02-03T19:02:37;7.50;99.90
14378;DHT22;7272;53.668;9.578;2023-02-03T19:05:39;7.50;99.90
14378;DHT22;7272;53.668;9.578;2023-02-03T19:08:43;7.40;99.90
14378;DHT22;7272;53.668;9.578;2023-02-03T19:11:45;7.40;99.90
14378;DHT22;7272;53.668;9.578;2023-02-03T19:14:47;7.30;99.90
14378;DHT22;7272;53.668;9.578;2023-02-03T19:17:49;7.30;99.90
14378;DHT22;7272;53.668;9.578;2023-02-03T19:20:51;7.30;99.90
14378;DHT22;7272;53.668;9.578;2023-02-03T19:23:55;7.30;99.90
14378;DHT22;7272;53.668;9.578;2023-02-03T19:26:57;7.40;99.90
14378;DHT22;7272;53.668;9.578;2023-02-03T19:29:59;7.40;99.90
14378;DHT22;7272;53.668;9.578;2023-02-03T19:33:01;7.50;99.90
14378;DHT22;7272;53.668;9.578;2023-02-03T19:36:05;7.50;99.90
14378;DHT22;7272;53.668;9.578;2023-02-03T19:39:10;7.50;99.90
14378;DHT22;7272;53.668;9.578;2023-02-03T19:42:12;7.50;99.90
14378;DHT22;7272;53.668;9.578;2023-02-03T19:45:14;7.50;99.90
14378;DHT22;7272;53.668;9.578;2023-02-03T19:48:16;7.50;99.90
14378;DHT22;7272;53.668;9.578;2023-02-03T19:51:18;7.50;99.90
14378;DHT22;7272;53.668;9.578;2023-02-03T19:54:22;7.50;99.90
14378;DHT22;7272;53.668;9.578;2023-02-03T19:57:24;7.60;99.90
14378;DHT22;7272;53.668;9.578;2023-02-03T20:00:26;7.60;99.90
14378;DHT22;7272;53.668;9.578;2023-02-03T20:03:28;7.60;99.90
14378;DHT22;7272;53.668;9.578;2023-02-03T20:06:32;7.60;99.90
14378;DHT22;7272;53.668;9.578;2023-02-03T20:09:36;7.60;99.90
14378;DHT22;7272;53.668;9.578;2023-02-03T20:12:38;7.60;99.90
14378;DHT22;7272;53.668;9.578;2023-02-03T20:15:40;7.50;99.90
14378;DHT22;7272;53.668;9.578;2023-02-03T20:18:43;7.50;99.90
14378;DHT22;7272;53.668;9.578;2023-02-03T20:21:45;7.40;99.90
14378;DHT22;7272;53.668;9.578;2023-02-03T20:24:52;7.40;99.90
14378;DHT22;7272;53.668;9.578;2023-02-03T20:27:54;7.30;99.90
14378;DHT22;7272;53.668;9.578;2023-02-03T20:30:59;7.20;99.90
14378;DHT22;7272;53.668;9.578;2023-02-03T20:34:01;7.20;99.90